CheckWX is a tool to help pilots better visualize weather data.  It is not intended as a substitute for an official pre-flight weather briefing.

17:40:48 UTC

FMCH METAR
Prince Said Ibrahim International Airport
Moroni, Comoros
Current

41 mins ago

FMCH 211700Z 20024KT 9999 FEW020 26/16 Q1016 NOSIG
Observed
Jul-21 @ 17:00 UTC
Wind
  • 200° at 24 KTS
Visibility
10,000+ meters
Flight Rules
VFR
Cloud Levels
  • Few at 2,000' AGL
Temperature
26°C / 79°F
Dewpoint
16°C / 61°F
Humidity
54%
Altimeter
30" Hg
Pressure
1015.92 hPa
Previous

2 hours ago

FMCH 211600Z 20021KT 9999 FEW020 27/14 Q1016 NOSIG
Observed
Jul-21 @ 16:00 UTC
Wind
  • 200° at 21 KTS
Visibility
10,000+ meters
Flight Rules
VFR
Cloud Levels
  • Few at 2,000' AGL
Temperature
27°C / 81°F
Dewpoint
14°C / 57°F
Heat Index
27°C / 81°F
Humidity
45%
Altimeter
30" Hg
Pressure
1015.92 hPa
Previous

3 hours ago

FMCH 211500Z 20026G36KT 9999 FEW020 28/13 Q1015 NOSIG
Observed
Jul-21 @ 15:00 UTC
Wind
  • 200° at 26 KTS
  • Gusting to 36 KTS
Visibility
10,000+ meters
Flight Rules
VFR
Cloud Levels
  • Few at 2,000' AGL
Temperature
28°C / 82°F
Dewpoint
13°C / 55°F
Heat Index
27°C / 81°F
Humidity
40%
Altimeter
29.97" Hg
Pressure
1014.92 hPa